createdAt,value
2018-11-05T00:00:52.071Z,96.20
2018-11-05T00:02:27.047Z,96.20
2018-11-05T00:04:02.092Z,96.20
2018-11-05T00:05:37.186Z,96.20
2018-11-05T00:07:12.210Z,96.20
2018-11-05T00:08:47.141Z,96.10
2018-11-05T00:10:40.623Z,96.10
2018-11-05T00:12:15.543Z,96.20
2018-11-05T00:13:56.798Z,96.50
2018-11-05T00:15:31.709Z,96.20
2018-11-05T00:17:06.664Z,96.10
2018-11-05T00:18:41.609Z,96.10
2018-11-05T00:20:16.608Z,96.10
2018-11-05T00:21:51.499Z,96.10
2018-11-05T00:23:26.424Z,96.10
2018-11-05T00:25:01.385Z,96.20
2018-11-05T00:26:36.268Z,96.20
2018-11-05T00:28:11.287Z,96.20
2018-11-05T00:29:46.193Z,96.20
2018-11-05T00:31:21.120Z,96.30
2018-11-05T00:32:56.048Z,96.30
2018-11-05T00:34:31.018Z,96.20
2018-11-05T00:36:06.329Z,96.20
2018-11-05T00:37:41.404Z,96.20
2018-11-05T00:39:16.448Z,96.20
2018-11-05T00:40:51.410Z,96.20
2018-11-05T00:42:26.461Z,96.10
2018-11-05T00:44:01.493Z,96.20
2018-11-05T00:45:36.460Z,96.20
2018-11-05T00:47:11.339Z,96.20
2018-11-05T00:48:46.296Z,96.20
2018-11-05T00:50:21.188Z,96.20
2018-11-05T00:51:56.084Z,96.20
2018-11-05T00:53:31.202Z,96.40
2018-11-05T00:55:06.424Z,96.10
2018-11-05T00:56:41.293Z,96.10
2018-11-05T00:58:16.187Z,96.20
2018-11-05T00:59:51.207Z,96.20
2018-11-05T01:01:26.123Z,96.30
2018-11-05T01:03:01.324Z,96.30
2018-11-05T01:04:36.192Z,96.30
2018-11-05T01:06:11.094Z,96.30
2018-11-05T01:07:46.463Z,96.30
2018-11-05T01:09:21.363Z,96.30
2018-11-05T01:10:56.275Z,96.30
2018-11-05T01:12:31.337Z,96.40
2018-11-05T01:14:07.238Z,96.50
2018-11-05T01:15:42.292Z,96.40
2018-11-05T01:17:17.232Z,96.40
2018-11-05T01:18:52.258Z,96.40
2018-11-05T01:20:27.260Z,96.40
2018-11-05T01:22:02.347Z,96.40
2018-11-05T01:23:37.248Z,96.30
2018-11-05T01:25:12.326Z,96.30
2018-11-05T01:26:47.215Z,96.30
2018-11-05T01:28:22.240Z,96.40
2018-11-05T01:29:57.136Z,96.30
2018-11-05T01:31:32.076Z,96.30
2018-11-05T01:33:07.010Z,96.30
2018-11-05T01:34:42.034Z,96.30
2018-11-05T01:36:16.879Z,96.40
2018-11-05T01:37:51.848Z,96.30
2018-11-05T01:39:26.751Z,96.60
2018-11-05T01:41:01.672Z,96.30
2018-11-05T01:42:36.737Z,96.30
2018-11-05T01:44:11.694Z,96.30
2018-11-05T01:45:46.639Z,96.40
2018-11-05T01:47:21.520Z,96.40
2018-11-05T01:48:56.437Z,96.40
2018-11-05T01:50:31.408Z,96.40
2018-11-05T01:52:07.103Z,96.40
2018-11-05T01:53:42.043Z,96.50
2018-11-05T01:55:17.031Z,96.50
2018-11-05T01:56:51.905Z,96.60
2018-11-05T01:58:26.891Z,96.70
2018-11-05T02:00:02.207Z,96.70
2018-11-05T02:01:37.269Z,96.70
2018-11-05T02:03:12.201Z,96.70
2018-11-05T02:04:47.148Z,96.60
2018-11-05T02:06:22.091Z,96.60
2018-11-05T02:07:56.967Z,96.60
2018-11-05T02:09:31.942Z,96.60
2018-11-05T02:11:06.863Z,96.60
2018-11-05T02:12:41.869Z,96.60
2018-11-05T02:14:16.778Z,96.70
2018-11-05T02:15:51.742Z,96.80
2018-11-05T02:17:26.654Z,97.20
2018-11-05T02:19:01.601Z,97.50
2018-11-05T02:20:36.473Z,97.60
2018-11-05T02:22:11.731Z,98.00
2018-11-05T02:23:46.686Z,98.00
2018-11-05T02:25:21.601Z,97.90
2018-11-05T02:26:56.515Z,97.90
2018-11-05T02:28:31.431Z,97.60
2018-11-05T02:30:10.223Z,97.50
2018-11-05T02:31:45.111Z,97.50
2018-11-05T02:33:20.027Z,97.60
2018-11-05T02:34:54.968Z,97.60
2018-11-05T02:36:30.108Z,97.90
2018-11-05T02:38:05.180Z,98.00
2018-11-05T02:39:40.140Z,98.00
2018-11-05T02:41:15.082Z,98.00
2018-11-05T02:42:50.509Z,97.90
2018-11-05T02:44:25.505Z,98.30
2018-11-05T02:46:00.385Z,98.10
2018-11-05T02:47:35.291Z,98.10
2018-11-05T02:49:10.227Z,98.10
2018-11-05T02:50:45.100Z,98.00
2018-11-05T02:52:19.946Z,97.90
2018-11-05T02:53:55.146Z,98.00
2018-11-05T02:55:30.045Z,98.00
2018-11-05T02:57:04.923Z,98.00
2018-11-05T02:58:39.804Z,97.90
2018-11-05T03:00:16.076Z,97.90
2018-11-05T03:01:51.104Z,98.20
2018-11-05T03:03:26.242Z,98.10
2018-11-05T03:05:01.159Z,97.80
2018-11-05T03:06:36.054Z,97.80
2018-11-05T03:08:10.946Z,97.80
2018-11-05T03:09:45.852Z,97.80
2018-11-05T03:11:20.731Z,97.90
2018-11-05T03:12:55.619Z,97.80
2018-11-05T03:14:30.610Z,97.90
2018-11-05T03:16:05.960Z,98.00
2018-11-05T03:17:40.886Z,98.10
2018-11-05T03:19:15.794Z,98.10
2018-11-05T03:20:50.658Z,98.10
2018-11-05T03:22:25.739Z,98.00
2018-11-05T03:24:00.664Z,98.20
2018-11-05T03:25:35.552Z,98.20
2018-11-05T03:27:10.428Z,98.20
2018-11-05T03:28:45.307Z,98.60
2018-11-05T03:30:20.342Z,98.30
2018-11-05T03:31:55.190Z,98.40
2018-11-05T03:33:30.123Z,98.30
2018-11-05T03:35:06.209Z,98.40
2018-11-05T03:36:41.142Z,98.40
2018-11-05T03:38:16.042Z,98.40
2018-11-05T03:39:51.056Z,98.60
2018-11-05T03:41:25.898Z,98.60
2018-11-05T03:43:00.769Z,98.80
2018-11-05T03:44:35.638Z,98.80
2018-11-05T03:46:10.757Z,98.70
2018-11-05T03:47:45.870Z,98.60
2018-11-05T03:49:20.747Z,98.50
2018-11-05T03:50:55.696Z,98.50
2018-11-05T03:52:30.567Z,98.50
2018-11-05T03:54:06.176Z,98.60
2018-11-05T03:55:41.291Z,98.60
2018-11-05T03:57:16.020Z,98.50
2018-11-05T03:58:51.047Z,98.40
2018-11-05T04:00:26.314Z,98.40
2018-11-05T04:02:01.237Z,98.40
2018-11-05T04:03:36.162Z,98.50
2018-11-05T04:05:11.211Z,98.40
2018-11-05T04:06:46.068Z,98.40
2018-11-05T04:08:21.028Z,98.40
2018-11-05T04:09:55.934Z,98.60
2018-11-05T04:11:30.787Z,98.40
2018-11-05T04:13:05.751Z,98.40
2018-11-05T04:14:40.671Z,98.50
2018-11-05T04:16:15.576Z,98.50
2018-11-05T04:17:50.477Z,98.50
2018-11-05T04:19:25.371Z,98.40
2018-11-05T04:21:00.306Z,98.50
2018-11-05T04:22:35.240Z,98.40
2018-11-05T04:24:11.059Z,98.40
2018-11-05T04:25:46.154Z,98.50
2018-11-05T04:27:21.011Z,98.60
2018-11-05T04:28:55.897Z,98.50
2018-11-05T04:30:30.811Z,98.50
2018-11-05T04:32:05.852Z,98.50
2018-11-05T04:33:40.760Z,98.50
2018-11-05T04:35:15.718Z,98.50
2018-11-05T04:36:50.582Z,98.60
2018-11-05T04:38:25.538Z,98.60
2018-11-05T04:40:00.418Z,98.60
2018-11-05T04:41:35.397Z,98.60
2018-11-05T04:43:10.254Z,98.50
2018-11-05T04:44:45.249Z,98.50
2018-11-05T04:46:20.142Z,98.50
2018-11-05T04:47:55.036Z,98.50
2018-11-05T04:49:29.890Z,98.50
2018-11-05T04:51:05.171Z,98.50
2018-11-05T04:52:40.743Z,98.50
2018-11-05T04:54:15.820Z,98.50
2018-11-05T04:55:50.754Z,98.50
2018-11-05T04:57:25.878Z,98.50
2018-11-05T04:59:00.701Z,98.40
2018-11-05T05:00:35.584Z,98.30
2018-11-05T05:02:10.466Z,98.30
2018-11-05T05:03:45.388Z,98.20
2018-11-05T05:05:20.301Z,98.10
2018-11-05T05:06:55.194Z,98.10
2018-11-05T05:08:30.251Z,98.20
2018-11-05T05:10:05.709Z,98.20
2018-11-05T05:11:40.800Z,98.20
2018-11-05T05:13:15.658Z,98.20
2018-11-05T05:14:50.604Z,98.20
2018-11-05T05:16:25.617Z,98.30
2018-11-05T05:18:00.414Z,98.30
2018-11-05T05:19:35.276Z,98.40
2018-11-05T05:21:10.266Z,98.40
2018-11-05T05:22:46.364Z,98.40
2018-11-05T05:24:21.085Z,98.40
2018-11-05T05:25:55.983Z,98.60
2018-11-05T05:27:30.881Z,98.50
2018-11-05T05:29:05.927Z,98.60
2018-11-05T05:30:40.816Z,98.70
2018-11-05T05:32:15.735Z,98.60
2018-11-05T05:33:50.663Z,98.60
2018-11-05T05:35:25.933Z,98.60
2018-11-05T05:37:00.864Z,98.60
2018-11-05T05:38:35.747Z,98.60
2018-11-05T05:40:10.641Z,98.50
2018-11-05T05:41:45.575Z,98.60
2018-11-05T05:43:20.544Z,98.60
2018-11-05T05:44:55.588Z,98.30
2018-11-05T05:46:30.618Z,99.00
2018-11-05T05:48:06.251Z,98.70
2018-11-05T05:49:41.170Z,98.80
2018-11-05T05:51:16.609Z,98.80
2018-11-05T05:52:51.583Z,98.80
2018-11-05T05:54:26.464Z,98.70
2018-11-05T05:56:01.373Z,98.60
2018-11-05T05:57:36.397Z,98.30
2018-11-05T05:59:11.250Z,98.30
2018-11-05T06:00:46.127Z,98.20
2018-11-05T06:02:21.049Z,98.70
2018-11-05T06:03:55.953Z,98.40
2018-11-05T06:05:30.875Z,98.10
2018-11-05T06:07:06.287Z,98.40
2018-11-05T06:08:41.177Z,98.40
2018-11-05T06:10:16.517Z,98.50
2018-11-05T06:11:51.529Z,98.50
2018-11-05T06:13:26.447Z,98.50
2018-11-05T06:15:03.321Z,98.60
2018-11-05T06:16:38.319Z,98.80
2018-11-05T06:18:13.421Z,99.00
2018-11-05T06:19:48.597Z,99.30
2018-11-05T06:21:23.490Z,99.30
2018-11-05T06:22:58.517Z,99.30
2018-11-05T06:24:34.171Z,99.20
2018-11-05T06:26:09.051Z,99.10
2018-11-05T06:27:43.961Z,99.00
2018-11-05T06:29:18.903Z,98.80
2018-11-05T06:30:53.898Z,98.60
2018-11-05T06:32:28.808Z,98.60
2018-11-05T06:34:03.804Z,98.50
2018-11-05T06:35:38.707Z,98.50
2018-11-05T06:37:13.962Z,98.40
2018-11-05T06:38:48.953Z,98.50
2018-11-05T06:40:23.817Z,98.30
2018-11-05T06:41:58.856Z,98.20
2018-11-05T06:43:33.592Z,98.10
2018-11-05T06:45:10.996Z,98.10
2018-11-05T06:46:45.862Z,98.00
2018-11-05T06:48:20.888Z,97.90
2018-11-05T06:49:55.747Z,97.90
2018-11-05T06:51:31.208Z,97.90
2018-11-05T06:53:12.684Z,97.90
2018-11-05T06:54:47.578Z,97.90
2018-11-05T06:56:22.478Z,97.90
2018-11-05T06:57:57.389Z,97.80
2018-11-05T06:59:32.433Z,97.60
2018-11-05T07:01:07.295Z,97.60
2018-11-05T07:02:42.484Z,97.70
2018-11-05T07:04:17.887Z,97.80
2018-11-05T07:05:52.777Z,97.70
2018-11-05T07:07:27.706Z,97.40
2018-11-05T07:09:02.584Z,97.20
2018-11-05T07:10:37.590Z,97.10
2018-11-05T07:12:12.543Z,97.00
2018-11-05T07:13:47.531Z,97.00
2018-11-05T07:15:22.446Z,96.90
2018-11-05T07:16:57.375Z,96.90
2018-11-05T07:18:32.440Z,96.70
2018-11-05T07:20:09.312Z,96.60
2018-11-05T07:21:44.186Z,96.40
2018-11-05T07:23:19.285Z,96.70
2018-11-05T07:24:54.232Z,96.40
2018-11-05T07:26:29.409Z,96.50
2018-11-05T07:28:04.376Z,96.40
2018-11-05T07:29:39.397Z,96.70
2018-11-05T07:31:14.288Z,96.20
2018-11-05T07:32:50.235Z,96.40
2018-11-05T07:34:25.187Z,95.90
2018-11-05T07:36:00.025Z,96.20
2018-11-05T07:37:34.904Z,96.20
2018-11-05T07:39:11.089Z,96.60
2018-11-05T07:40:46.016Z,96.40
2018-11-05T07:42:20.892Z,96.20
2018-11-05T07:43:55.871Z,95.80
2018-11-05T07:45:30.802Z,95.90
2018-11-05T07:47:05.779Z,95.80
2018-11-05T07:48:40.699Z,95.80
2018-11-05T07:50:16.710Z,96.10
2018-11-05T07:51:51.656Z,95.50
2018-11-05T07:53:26.509Z,95.80
2018-11-05T07:55:01.456Z,95.80
2018-11-05T07:56:36.380Z,95.50
2018-11-05T07:58:11.303Z,95.70
2018-11-05T07:59:46.222Z,95.30
2018-11-05T08:01:21.371Z,95.30
2018-11-05T08:02:57.187Z,95.30
2018-11-05T08:04:32.060Z,95.50
2018-11-05T08:06:07.159Z,95.20
2018-11-05T08:07:42.082Z,94.90
2018-11-05T08:09:17.042Z,94.80
2018-11-05T08:10:51.956Z,94.90
2018-11-05T08:12:26.840Z,94.80
2018-11-05T08:14:01.764Z,95.10
2018-11-05T08:15:36.675Z,95.00
2018-11-05T08:17:11.535Z,94.40
2018-11-05T08:18:46.491Z,94.60
2018-11-05T08:20:21.423Z,94.50
2018-11-05T08:21:56.428Z,94.70
2018-11-05T08:23:31.300Z,95.00
2018-11-05T08:25:06.287Z,95.20
2018-11-05T08:26:41.339Z,94.80
2018-11-05T08:28:16.499Z,94.10
2018-11-05T08:29:51.677Z,93.80
2018-11-05T08:31:26.524Z,94.20
2018-11-05T08:33:01.395Z,94.50
2018-11-05T08:34:36.428Z,94.70
2018-11-05T08:36:11.330Z,94.50
2018-11-05T08:37:47.071Z,93.70
2018-11-05T08:39:22.446Z,93.80
2018-11-05T08:40:57.494Z,93.60
2018-11-05T08:42:32.367Z,93.90
2018-11-05T08:44:07.867Z,93.80
2018-11-05T08:45:42.766Z,93.00
2018-11-05T08:47:17.846Z,93.10
2018-11-05T08:48:52.802Z,93.40
2018-11-05T08:50:27.833Z,93.00
2018-11-05T08:52:02.778Z,93.30
2018-11-05T08:53:37.813Z,93.40
2018-11-05T08:55:14.971Z,93.30
2018-11-05T08:56:49.910Z,93.60
2018-11-05T08:58:24.824Z,92.90
2018-11-05T08:59:59.786Z,93.50
2018-11-05T09:01:34.891Z,93.50
2018-11-05T09:03:09.840Z,92.90
2018-11-05T09:04:44.824Z,92.90
2018-11-05T09:06:19.789Z,92.70
2018-11-05T09:07:55.443Z,92.90
2018-11-05T09:09:30.526Z,92.50
2018-11-05T09:11:05.819Z,92.80
2018-11-05T09:12:40.722Z,92.70
2018-11-05T09:14:15.611Z,93.00
2018-11-05T09:15:50.601Z,92.50
2018-11-05T09:17:25.483Z,92.10
2018-11-05T09:19:00.429Z,92.30
2018-11-05T09:20:35.711Z,92.60
2018-11-05T09:22:10.666Z,92.20
2018-11-05T09:23:45.767Z,92.00
2018-11-05T09:25:20.740Z,91.60
2018-11-05T09:26:55.638Z,91.70
2018-11-05T09:28:30.555Z,91.90
2018-11-05T09:30:07.851Z,92.20
2018-11-05T09:31:42.767Z,91.70
2018-11-05T09:33:17.664Z,90.50
2018-11-05T09:34:52.581Z,91.30
2018-11-05T09:36:27.528Z,88.00
2018-11-05T09:38:02.603Z,89.20
2018-11-05T09:39:37.496Z,90.20
2018-11-05T09:41:12.423Z,89.20
2018-11-05T09:42:48.078Z,88.20
2018-11-05T09:44:22.994Z,90.20
2018-11-05T09:45:57.881Z,88.80
2018-11-05T09:47:32.756Z,88.40
2018-11-05T09:49:07.883Z,84.60
2018-11-05T09:50:42.821Z,86.50
2018-11-05T09:52:17.713Z,86.10
2018-11-05T09:53:52.587Z,87.30
2018-11-05T09:55:27.634Z,84.20
2018-11-05T09:57:02.718Z,83.30
2018-11-05T09:58:37.616Z,87.10
2018-11-05T10:00:15.478Z,85.90
2018-11-05T10:01:50.526Z,82.40
2018-11-05T10:03:25.698Z,83.40
2018-11-05T10:05:00.509Z,83.70
2018-11-05T10:06:35.339Z,84.00
2018-11-05T10:08:10.295Z,84.10
2018-11-05T10:09:45.274Z,84.10
2018-11-05T10:11:20.413Z,82.80
2018-11-05T10:12:55.338Z,82.70
2018-11-05T10:14:30.415Z,82.60
2018-11-05T10:16:05.942Z,85.20
2018-11-05T10:17:41.243Z,84.00
2018-11-05T10:19:16.170Z,81.00
2018-11-05T10:20:51.074Z,83.40
2018-11-05T10:22:25.971Z,84.20
2018-11-05T10:24:00.876Z,83.00
2018-11-05T10:25:35.876Z,84.50
2018-11-05T10:27:10.796Z,83.60
2018-11-05T10:28:46.948Z,84.50
2018-11-05T10:30:23.096Z,83.60
2018-11-05T10:31:58.020Z,83.40
2018-11-05T10:33:34.557Z,84.80
2018-11-05T10:35:09.488Z,83.10
2018-11-05T10:36:44.418Z,82.40
2018-11-05T10:38:19.305Z,83.30
2018-11-05T10:39:54.443Z,83.90
2018-11-05T10:41:29.425Z,85.10
2018-11-05T10:43:04.671Z,84.30
2018-11-05T10:44:39.542Z,83.70
2018-11-05T10:46:14.470Z,84.20
2018-11-05T10:47:49.329Z,83.60
2018-11-05T10:49:24.238Z,83.30
2018-11-05T10:50:59.198Z,83.60
2018-11-05T10:52:34.350Z,83.50
2018-11-05T10:54:09.284Z,83.60
2018-11-05T10:55:44.194Z,82.70
2018-11-05T10:57:19.085Z,83.10
2018-11-05T10:58:54.019Z,83.10
2018-11-05T11:00:34.246Z,83.10
2018-11-05T11:02:14.511Z,81.80
2018-11-05T11:03:54.941Z,82.60
2018-11-05T11:05:30.706Z,81.20
2018-11-05T11:07:06.519Z,81.10
2018-11-05T11:08:41.668Z,81.70
2018-11-05T11:10:16.675Z,80.40
2018-11-05T11:11:51.555Z,80.50
2018-11-05T11:13:26.445Z,80.50
2018-11-05T11:15:01.371Z,79.70
2018-11-05T11:16:36.288Z,80.40
2018-11-05T11:18:11.248Z,80.50
2018-11-05T11:19:46.142Z,80.40
2018-11-05T11:21:21.103Z,80.00
2018-11-05T11:22:56.011Z,80.40
2018-11-05T11:24:31.057Z,80.20
2018-11-05T11:26:06.199Z,79.70
2018-11-05T11:27:41.192Z,80.10
2018-11-05T11:29:16.227Z,79.10
2018-11-05T11:30:51.014Z,79.40
2018-11-05T11:32:25.878Z,78.30
2018-11-05T11:34:00.780Z,78.60
2018-11-05T11:35:35.668Z,79.70
2018-11-05T11:37:10.695Z,78.00
2018-11-05T11:38:45.500Z,78.30
2018-11-05T11:40:21.893Z,76.30
2018-11-05T11:41:56.868Z,77.40
2018-11-05T11:43:31.790Z,77.60
2018-11-05T11:45:07.270Z,77.60
2018-11-05T11:46:42.184Z,77.90
2018-11-05T11:48:17.127Z,77.80
2018-11-05T11:49:52.102Z,77.90
2018-11-05T11:51:27.109Z,76.80
2018-11-05T11:53:02.779Z,76.50
2018-11-05T11:54:37.696Z,75.60
2018-11-05T11:56:12.804Z,76.80
2018-11-05T11:57:47.837Z,77.70
2018-11-05T11:59:22.748Z,77.00
2018-11-05T12:00:57.686Z,77.10
2018-11-05T12:02:32.940Z,77.20
2018-11-05T12:04:07.857Z,77.00
2018-11-05T12:05:42.751Z,77.80
2018-11-05T12:07:17.652Z,77.70
2018-11-05T12:08:52.605Z,76.50
2018-11-05T12:10:27.592Z,77.40
2018-11-05T12:12:02.831Z,77.00
2018-11-05T12:13:37.882Z,77.00
2018-11-05T12:15:13.639Z,77.10
2018-11-05T12:16:48.596Z,76.30
2018-11-05T12:18:23.575Z,76.50
2018-11-05T12:19:58.488Z,76.40
2018-11-05T12:21:33.508Z,75.90
2018-11-05T12:23:08.398Z,76.40
2018-11-05T12:24:43.297Z,75.80
2018-11-05T12:26:18.180Z,76.90
2018-11-05T12:27:53.139Z,76.60
2018-11-05T12:29:28.038Z,76.70
2018-11-05T12:31:03.087Z,75.60
2018-11-05T12:32:38.100Z,76.20
2018-11-05T12:34:13.050Z,76.40
2018-11-05T12:35:47.993Z,76.10
2018-11-05T12:37:22.886Z,75.50
2018-11-05T12:38:58.201Z,75.80
2018-11-05T12:40:33.091Z,74.50
2018-11-05T12:42:08.041Z,73.80
2018-11-05T12:43:43.113Z,74.40
2018-11-05T12:45:18.092Z,74.40
2018-11-05T12:46:53.017Z,73.00
2018-11-05T12:48:27.955Z,73.20
2018-11-05T12:50:02.948Z,72.40
2018-11-05T12:51:37.890Z,71.60
2018-11-05T12:53:12.752Z,68.80
2018-11-05T12:54:47.702Z,69.70
2018-11-05T12:56:22.658Z,70.30
2018-11-05T12:57:57.559Z,69.60
2018-11-05T12:59:32.439Z,70.00
2018-11-05T13:01:07.379Z,70.50
2018-11-05T13:02:42.344Z,70.30
2018-11-05T13:04:17.451Z,70.90
2018-11-05T13:05:52.298Z,71.10
2018-11-05T13:07:27.559Z,70.50
2018-11-05T13:09:02.495Z,71.10
2018-11-05T13:10:37.387Z,71.30
2018-11-05T13:12:12.355Z,71.60
2018-11-05T13:13:47.347Z,71.50
2018-11-05T13:15:22.413Z,72.00
2018-11-05T13:16:57.280Z,72.20
2018-11-05T13:18:32.187Z,72.30
2018-11-05T13:20:09.099Z,72.50
2018-11-05T13:21:43.991Z,72.70
2018-11-05T13:23:24.338Z,72.90
2018-11-05T13:24:59.340Z,72.90
2018-11-05T13:26:34.270Z,73.00
2018-11-05T13:28:09.297Z,73.00
2018-11-05T13:29:44.195Z,74.00
2018-11-05T13:31:19.099Z,73.40
2018-11-05T13:32:54.040Z,73.40
2018-11-05T13:34:28.958Z,73.60
2018-11-05T13:36:04.033Z,74.00
2018-11-05T13:37:39.395Z,74.10
2018-11-05T13:39:13.910Z,74.70
2018-11-05T13:40:48.826Z,74.70
2018-11-05T13:42:23.769Z,75.00
2018-11-05T13:43:58.755Z,75.00
2018-11-05T13:45:33.953Z,74.90
2018-11-05T13:47:09.119Z,75.00
2018-11-05T13:48:45.012Z,75.10
2018-11-05T13:50:19.975Z,75.10
2018-11-05T13:51:54.751Z,75.10
2018-11-05T13:53:29.641Z,75.10
2018-11-05T13:55:05.103Z,75.20
2018-11-05T13:56:39.846Z,75.20
2018-11-05T13:58:14.894Z,75.30
2018-11-05T13:59:49.775Z,75.10
2018-11-05T14:01:24.657Z,75.20
2018-11-05T14:02:59.623Z,75.40
2018-11-05T14:04:34.593Z,75.30
2018-11-05T14:06:09.470Z,75.50
2018-11-05T14:07:44.420Z,75.80
2018-11-05T14:09:19.357Z,75.50
2018-11-05T14:10:54.349Z,75.90
2018-11-05T14:12:29.285Z,75.80
2018-11-05T14:14:04.190Z,75.90
2018-11-05T14:15:39.076Z,76.10
2018-11-05T14:17:13.964Z,76.10
2018-11-05T14:18:48.872Z,76.20
2018-11-05T14:20:23.761Z,76.30
2018-11-05T14:21:58.772Z,76.50
2018-11-05T14:23:33.680Z,76.60
2018-11-05T14:25:10.827Z,76.80
2018-11-05T14:26:45.795Z,76.70
2018-11-05T14:28:20.922Z,77.00
2018-11-05T14:29:56.038Z,77.00
2018-11-05T14:31:30.733Z,77.30
2018-11-05T14:33:05.647Z,77.70
2018-11-05T14:34:40.611Z,77.50
2018-11-05T14:36:15.519Z,77.80
2018-11-05T14:37:50.468Z,78.00
2018-11-05T14:39:25.348Z,77.80
2018-11-05T14:41:00.318Z,77.70
2018-11-05T14:42:35.405Z,78.00
2018-11-05T14:44:11.193Z,78.90
2018-11-05T14:45:46.155Z,78.40
2018-11-05T14:47:21.077Z,78.70
2018-11-05T14:48:56.013Z,78.90
2018-11-05T14:50:30.944Z,79.00
2018-11-05T14:52:06.050Z,79.10
2018-11-05T14:53:40.998Z,79.10
2018-11-05T14:55:17.370Z,79.30
2018-11-05T14:56:52.283Z,79.70
2018-11-05T14:58:27.191Z,79.90
2018-11-05T15:00:02.110Z,79.90
2018-11-05T15:01:37.043Z,80.40
2018-11-05T15:03:11.944Z,80.30
2018-11-05T15:04:46.824Z,80.60
2018-11-05T15:06:21.800Z,80.80
2018-11-05T15:07:56.673Z,81.00
2018-11-05T15:09:31.637Z,81.50
2018-11-05T15:11:06.496Z,82.90
2018-11-05T15:12:41.649Z,82.10
2018-11-05T15:14:16.631Z,82.20
2018-11-05T15:15:51.643Z,81.70
2018-11-05T15:17:26.542Z,82.50
2018-11-05T15:19:01.733Z,82.60
2018-11-05T15:20:36.437Z,82.80
2018-11-05T15:22:11.375Z,83.20
2018-11-05T15:23:46.403Z,83.10
2018-11-05T15:25:21.835Z,83.60
2018-11-05T15:26:56.859Z,83.40
2018-11-05T15:28:31.615Z,83.80
2018-11-05T15:30:08.954Z,83.60
2018-11-05T15:31:43.890Z,84.70
2018-11-05T15:33:18.823Z,84.50
2018-11-05T15:34:53.738Z,84.40
2018-11-05T15:36:28.709Z,84.70
2018-11-05T15:38:03.619Z,85.00
2018-11-05T15:39:38.639Z,84.80
2018-11-05T15:41:13.536Z,85.50
2018-11-05T15:42:48.537Z,85.60
2018-11-05T15:44:23.505Z,86.60
2018-11-05T15:45:58.459Z,86.10
2018-11-05T15:47:33.447Z,86.30
2018-11-05T15:49:08.579Z,86.70
2018-11-05T15:50:43.499Z,86.70
2018-11-05T15:52:18.752Z,87.00
2018-11-05T15:53:53.442Z,87.30
2018-11-05T15:55:28.355Z,87.50
2018-11-05T15:57:03.390Z,88.60
2018-11-05T15:58:38.340Z,88.70
2018-11-05T16:00:24.406Z,88.90
2018-11-05T16:02:13.890Z,89.30
2018-11-05T16:03:49.079Z,89.00
2018-11-05T16:05:24.063Z,89.90
2018-11-05T16:06:59.056Z,89.80
2018-11-05T16:08:34.145Z,89.90
2018-11-05T16:10:09.314Z,90.90
2018-11-05T16:11:44.268Z,90.70
2018-11-05T16:13:19.316Z,90.60
2018-11-05T16:14:54.296Z,90.50
2018-11-05T16:16:29.199Z,90.40
2018-11-05T16:18:04.098Z,90.50
2018-11-05T16:19:39.096Z,90.60
2018-11-05T16:21:13.965Z,90.60
2018-11-05T16:22:49.842Z,90.90
2018-11-05T16:24:25.112Z,90.90
2018-11-05T16:25:59.938Z,91.10
2018-11-05T16:27:35.033Z,91.10
2018-11-05T16:29:09.940Z,91.20
2018-11-05T16:30:44.945Z,91.30
2018-11-05T16:32:19.835Z,91.40
2018-11-05T16:33:54.761Z,91.60
2018-11-05T16:35:29.670Z,91.50
2018-11-05T16:37:05.090Z,91.60
2018-11-05T16:38:40.220Z,91.90
2018-11-05T16:40:16.244Z,91.80
2018-11-05T16:41:51.173Z,91.80
2018-11-05T16:43:26.073Z,91.90
2018-11-05T16:45:01.067Z,92.10
2018-11-05T16:46:35.955Z,92.10
2018-11-05T16:48:10.875Z,92.10
2018-11-05T16:49:45.764Z,92.20
2018-11-05T16:51:20.690Z,92.20
2018-11-05T16:52:55.934Z,92.50
2018-11-05T16:54:30.988Z,92.70
2018-11-05T16:56:05.931Z,92.40
2018-11-05T16:57:41.488Z,92.60
2018-11-05T16:59:16.435Z,92.50
2018-11-05T17:00:51.440Z,92.70
2018-11-05T17:02:26.567Z,92.60
2018-11-05T17:04:01.156Z,92.70
2018-11-05T17:05:36.206Z,92.60
2018-11-05T17:07:11.218Z,92.70
2018-11-05T17:08:46.060Z,92.70
2018-11-05T17:10:20.982Z,92.80
2018-11-05T17:11:55.857Z,93.00
2018-11-05T17:13:30.904Z,93.00
2018-11-05T17:15:07.585Z,93.20
2018-11-05T17:16:42.535Z,93.20
2018-11-05T17:18:17.448Z,93.30
2018-11-05T17:19:52.354Z,93.30
2018-11-05T17:21:27.270Z,93.10
2018-11-05T17:23:02.191Z,93.10
2018-11-05T17:24:37.095Z,93.20
2018-11-05T17:26:12.448Z,93.00
2018-11-05T17:27:48.717Z,93.20
2018-11-05T17:29:23.593Z,93.20
2018-11-05T17:30:58.482Z,93.20
2018-11-05T17:32:33.520Z,93.20
2018-11-05T17:34:08.482Z,93.10
2018-11-05T17:35:43.398Z,93.00
2018-11-05T17:37:18.284Z,93.00
2018-11-05T17:38:53.327Z,93.00
2018-11-05T17:40:28.299Z,92.90
2018-11-05T17:42:03.176Z,93.00
2018-11-05T17:43:38.267Z,93.00
2018-11-05T17:45:14.646Z,93.20
2018-11-05T17:46:49.678Z,93.20
2018-11-05T17:48:24.615Z,93.20
2018-11-05T17:49:59.619Z,93.00
2018-11-05T17:51:34.551Z,93.40
2018-11-05T17:53:09.448Z,93.20
2018-11-05T17:54:44.344Z,93.40
2018-11-05T17:56:19.351Z,93.50
2018-11-05T17:57:54.214Z,93.00
2018-11-05T17:59:29.662Z,92.90
2018-11-05T18:01:04.652Z,92.50
2018-11-05T18:02:39.647Z,92.70
2018-11-05T18:04:14.647Z,92.80
2018-11-05T18:05:49.495Z,92.90
2018-11-05T18:07:24.841Z,93.20
2018-11-05T18:08:59.817Z,93.00
2018-11-05T18:10:34.665Z,92.80
2018-11-05T18:12:09.576Z,92.80
2018-11-05T18:13:44.442Z,92.30
2018-11-05T18:15:19.364Z,92.00
2018-11-05T18:16:54.231Z,92.10
2018-11-05T18:18:29.107Z,91.90
2018-11-05T18:20:04.436Z,92.50
2018-11-05T18:21:39.405Z,93.00
2018-11-05T18:23:14.324Z,93.00
2018-11-05T18:24:49.218Z,93.20
2018-11-05T18:26:24.157Z,93.30
2018-11-05T18:27:59.021Z,93.20
2018-11-05T18:29:34.092Z,93.00
2018-11-05T18:31:09.075Z,93.10
2018-11-05T18:32:43.963Z,93.00
2018-11-05T18:34:18.871Z,92.90
2018-11-05T18:35:53.816Z,93.10
2018-11-05T18:37:28.721Z,92.90
2018-11-05T18:39:03.762Z,92.90
2018-11-05T18:40:38.790Z,92.90
2018-11-05T18:42:13.799Z,92.90
2018-11-05T18:43:48.706Z,92.70
2018-11-05T18:45:23.745Z,92.60
2018-11-05T18:46:58.687Z,92.50
2018-11-05T18:48:33.600Z,92.50
2018-11-05T18:50:10.323Z,92.40
2018-11-05T18:51:45.175Z,92.30
2018-11-05T18:53:20.087Z,92.30
2018-11-05T18:54:55.084Z,92.40
2018-11-05T18:56:30.022Z,92.10
2018-11-05T18:58:05.197Z,92.40
2018-11-05T18:59:40.115Z,92.40
2018-11-05T19:01:15.007Z,92.50
2018-11-05T19:02:50.858Z,92.60
2018-11-05T19:04:25.588Z,92.70
2018-11-05T19:06:00.549Z,92.70
2018-11-05T19:07:37.220Z,92.70
2018-11-05T19:09:12.228Z,92.70
2018-11-05T19:10:47.166Z,92.90
2018-11-05T19:12:22.351Z,93.20
2018-11-05T19:13:57.479Z,93.10
2018-11-05T19:15:32.519Z,93.30
2018-11-05T19:17:07.436Z,93.20
2018-11-05T19:18:42.420Z,92.80
2018-11-05T19:20:17.543Z,92.70
2018-11-05T19:21:52.436Z,93.10
2018-11-05T19:23:27.417Z,92.90
2018-11-05T19:25:02.270Z,92.90
2018-11-05T19:26:37.265Z,93.00
2018-11-05T19:28:12.316Z,93.00
2018-11-05T19:29:47.208Z,92.70
2018-11-05T19:31:22.161Z,92.90
2018-11-05T19:32:57.056Z,92.80
2018-11-05T19:34:32.087Z,92.80
2018-11-05T19:36:07.446Z,93.00
2018-11-05T19:37:42.915Z,93.30
2018-11-05T19:39:17.788Z,93.40
2018-11-05T19:40:52.651Z,93.40
2018-11-05T19:42:27.717Z,93.40
2018-11-05T19:44:02.492Z,93.40
2018-11-05T19:45:37.397Z,93.50
2018-11-05T19:47:12.413Z,93.50
2018-11-05T19:48:47.274Z,93.50
2018-11-05T19:50:25.685Z,93.50
2018-11-05T19:52:06.221Z,93.50
2018-11-05T19:53:43.052Z,93.50
2018-11-05T19:55:19.079Z,93.80
2018-11-05T19:56:54.050Z,93.70
2018-11-05T19:58:28.972Z,93.50
2018-11-05T20:00:04.381Z,93.50
2018-11-05T20:01:39.545Z,93.60
2018-11-05T20:03:14.401Z,93.80
2018-11-05T20:04:49.315Z,93.80
2018-11-05T20:06:24.223Z,93.80
2018-11-05T20:07:59.822Z,93.70
2018-11-05T20:09:34.752Z,93.70
2018-11-05T20:11:09.720Z,93.60
2018-11-05T20:12:45.278Z,93.60
2018-11-05T20:14:26.137Z,93.60
2018-11-05T20:16:02.612Z,93.60
2018-11-05T20:17:38.707Z,93.60
2018-11-05T20:19:13.608Z,93.60
2018-11-05T20:20:48.768Z,93.60
2018-11-05T20:22:23.841Z,93.60
2018-11-05T20:23:58.683Z,93.60
2018-11-05T20:25:33.549Z,93.90